createdAt,value
2018-10-12T07:43:08.316Z,18.90
2018-10-12T07:45:39.003Z,19.10
2018-10-12T07:48:09.950Z,19.30
2018-10-12T07:50:50.867Z,19.40
2018-10-12T07:53:22.160Z,19.40
2018-10-12T07:55:53.022Z,19.50
2018-10-12T07:58:23.947Z,19.70
2018-10-12T08:00:54.792Z,19.70
2018-10-12T08:03:25.362Z,19.80
2018-10-12T08:05:56.361Z,19.50
2018-10-12T08:08:27.505Z,19.20
2018-10-12T08:10:58.410Z,19.10
2018-10-12T08:13:29.380Z,19.10
2018-10-12T08:16:01.265Z,19.30
2018-10-12T08:18:33.264Z,19.00
2018-10-12T08:52:39.254Z,20.50
2018-10-12T08:55:10.251Z,20.70
2018-10-12T08:57:41.209Z,20.70
2018-10-12T09:00:12.759Z,20.70
2018-10-12T09:02:43.463Z,21.00
2018-10-12T09:05:14.466Z,20.90
2018-10-12T09:07:50.157Z,20.90
2018-10-12T09:10:23.573Z,21.10
2018-10-12T09:13:01.385Z,21.20
2018-10-12T09:15:32.295Z,21.40
2018-10-12T09:18:03.601Z,21.30
2018-10-12T09:20:35.289Z,21.10
2018-10-12T09:23:06.817Z,21.20
2018-10-12T09:25:38.320Z,21.20
2018-10-12T09:28:09.240Z,21.40
2018-10-12T09:30:41.119Z,21.40
2018-10-12T09:33:12.346Z,21.30
2018-10-12T09:35:43.119Z,21.10
2018-10-12T09:38:13.977Z,21.10
2018-10-12T09:40:45.000Z,21.30
2018-10-12T09:43:15.812Z,21.60
2018-10-12T09:45:46.876Z,21.60
2018-10-12T09:48:17.762Z,21.80
2018-10-12T09:50:48.642Z,21.80
2018-10-12T09:53:19.579Z,22.00
2018-10-12T09:55:50.393Z,22.20
2018-10-12T09:58:21.788Z,22.00
2018-10-12T10:00:57.576Z,21.80
2018-10-12T10:03:33.441Z,21.80
2018-10-12T10:06:04.592Z,21.80
2018-10-12T10:08:36.048Z,21.80
2018-10-12T10:11:06.724Z,22.00
2018-10-12T10:13:37.602Z,22.00
2018-10-12T10:16:09.094Z,22.20
2018-10-12T10:18:39.909Z,22.30
2018-10-12T10:21:10.828Z,22.40
2018-10-12T10:23:41.604Z,22.50
2018-10-12T10:26:18.548Z,22.80
2018-10-12T10:28:49.401Z,23.10
2018-10-12T10:31:20.211Z,23.10
2018-10-12T10:33:51.167Z,23.40
2018-10-12T10:36:22.210Z,23.40
2018-10-12T10:38:53.284Z,23.50
2018-10-12T10:41:24.228Z,23.40
2018-10-12T10:43:55.299Z,23.70
2018-10-12T10:46:26.625Z,23.60
2018-10-12T10:48:57.452Z,23.70
2018-10-12T10:51:28.853Z,23.50
2018-10-12T10:53:59.626Z,23.30
2018-10-12T10:56:30.454Z,23.30
2018-10-12T10:59:01.219Z,23.50
2018-10-12T11:01:32.226Z,23.50
2018-10-12T11:04:07.997Z,23.60
2018-10-12T11:06:39.196Z,23.80
2018-10-12T11:09:10.469Z,24.30
2018-10-12T11:11:41.520Z,24.60
2018-10-12T11:14:12.889Z,24.10
2018-10-12T11:16:43.561Z,24.00
2018-10-12T11:19:14.246Z,23.80
2018-10-12T11:21:45.320Z,23.60
2018-10-12T11:24:16.029Z,23.70
2018-10-12T11:26:47.102Z,23.80
2018-10-12T11:29:18.343Z,24.00
2018-10-12T11:31:49.341Z,24.40
2018-10-12T11:34:20.190Z,24.40
2018-10-12T11:36:50.944Z,24.20
2018-10-12T11:39:21.859Z,24.00
2018-10-12T11:41:52.532Z,24.20
2018-10-12T11:44:23.317Z,24.50
2018-10-12T11:47:02.767Z,24.50
2018-10-12T15:33:23.280Z,22.30
2018-10-12T15:36:12.477Z,22.30
2018-10-12T15:45:25.690Z,21.60
